Terminal Aerodrome Forecast
Issued by NWS

Current Version | Previous Version | Graphics & Text | Print | Product List | Glossary On
Versions: 1 2 3 4 5 6 7 8 9 10 11 12 13 14 15 16 17 18 19
000
FTUS41 KPBZ 220237 AAA
TAFHLG
TAF AMD
KHLG 220237Z 2203/2224 01010KT P6SM OVC020
     FM220500 02010KT P6SM VCSH OVC035
     FM220700 02010KT 5SM -RA OVC030
     FM221000 03012KT 2SM -RA OVC015
     FM221500 03012KT 2SM -RA BR OVC008
     FM221800 01008KT P6SM OVC008
     FM222300 02005KT P6SM OVC010=

USA.gov is the U.S. government's official web portal to all federal, state and local government web resources and services.